createdAt,value
2023-05-21T00:00:12.197Z,23.42
2023-05-21T00:02:59.308Z,24.45
2023-05-21T00:05:47.681Z,24.60
2023-05-21T00:08:34.806Z,23.60
2023-05-21T00:11:22.390Z,23.20
2023-05-21T00:14:10.259Z,23.92
2023-05-21T00:16:56.954Z,23.98
2023-05-21T00:19:43.186Z,23.88
2023-05-21T00:22:29.820Z,23.35
2023-05-21T00:25:16.125Z,23.95
2023-05-21T00:28:02.275Z,22.38
2023-05-21T00:30:49.920Z,24.75
2023-05-21T00:33:36.482Z,23.25
2023-05-21T00:36:23.985Z,23.20
2023-05-21T00:39:10.504Z,23.05
2023-05-21T00:41:57.808Z,21.90
2023-05-21T00:44:44.021Z,22.25
2023-05-21T00:47:31.732Z,22.15
2023-05-21T00:50:18.690Z,22.33
2023-05-21T00:53:05.083Z,23.27
2023-05-21T00:55:52.076Z,22.63
2023-05-21T00:58:39.360Z,22.30
2023-05-21T01:01:26.683Z,23.88
2023-05-21T01:04:14.698Z,22.75
2023-05-21T01:07:01.997Z,23.90
2023-05-21T01:09:48.703Z,23.48
2023-05-21T01:12:36.802Z,22.80
2023-05-21T01:15:23.479Z,22.08
2023-05-21T01:18:09.925Z,22.85
2023-05-21T01:20:58.113Z,21.90
2023-05-21T01:23:46.110Z,22.92
2023-05-21T01:26:33.706Z,23.75
2023-05-21T01:29:20.088Z,21.85
2023-05-21T01:32:13.345Z,22.52
2023-05-21T01:35:03.362Z,23.02
2023-05-21T01:37:56.164Z,22.37
2023-05-21T01:40:49.749Z,22.85
2023-05-21T01:43:39.778Z,24.38
2023-05-21T01:46:29.927Z,23.25
2023-05-21T01:49:18.696Z,23.02
2023-05-21T01:52:05.443Z,23.27
2023-05-21T01:54:54.301Z,21.80
2023-05-21T01:57:42.385Z,24.30
2023-05-21T02:00:29.492Z,23.37
2023-05-21T02:03:16.599Z,23.80
2023-05-21T02:06:03.155Z,24.23
2023-05-21T02:08:49.630Z,23.77
2023-05-21T02:11:36.154Z,24.23
2023-05-21T02:14:25.240Z,23.52
2023-05-21T02:17:11.521Z,22.75
2023-05-21T02:19:57.907Z,22.88
2023-05-21T02:22:45.961Z,24.55
2023-05-21T02:25:32.490Z,23.90
2023-05-21T02:28:18.693Z,23.23
2023-05-21T02:31:06.417Z,23.55
2023-05-21T02:33:53.172Z,23.67
2023-05-21T02:36:41.439Z,23.08
2023-05-21T02:39:27.877Z,23.40
2023-05-21T02:42:14.275Z,24.47
2023-05-21T02:45:00.842Z,24.33
2023-05-21T02:47:48.823Z,24.27
2023-05-21T02:50:35.479Z,24.20
2023-05-21T02:53:21.975Z,25.60
2023-05-21T02:56:08.554Z,23.85
2023-05-21T02:58:55.190Z,23.77
2023-05-21T03:01:41.706Z,25.40
2023-05-21T03:04:29.396Z,25.00
2023-05-21T03:07:17.987Z,26.10
2023-05-21T03:10:05.175Z,25.27
2023-05-21T03:12:53.448Z,26.65
2023-05-21T03:15:40.134Z,25.10
2023-05-21T03:18:26.701Z,24.53
2023-05-21T03:21:15.438Z,26.50
2023-05-21T03:24:02.000Z,26.43
2023-05-21T03:26:50.748Z,24.02
2023-05-21T03:29:37.592Z,25.02
2023-05-21T03:32:23.981Z,25.70
2023-05-21T03:35:12.689Z,23.98
2023-05-21T03:38:01.766Z,24.38
2023-05-21T03:40:48.077Z,24.88
2023-05-21T03:43:34.638Z,24.98
2023-05-21T03:46:21.006Z,24.80
2023-05-21T03:49:07.846Z,24.63
2023-05-21T03:51:54.292Z,24.10
2023-05-21T03:54:42.001Z,25.88
2023-05-21T03:57:28.855Z,24.75
2023-05-21T04:00:15.728Z,24.73
2023-05-21T04:03:02.204Z,24.70
2023-05-21T04:05:49.442Z,25.38
2023-05-21T04:08:36.542Z,25.20
2023-05-21T04:11:24.247Z,25.47
2023-05-21T04:14:10.605Z,24.57
2023-05-21T04:16:56.784Z,25.92
2023-05-21T04:19:43.380Z,25.13
2023-05-21T04:22:29.820Z,25.05
2023-05-21T04:25:16.109Z,25.00
2023-05-21T04:28:04.281Z,25.27
2023-05-21T04:30:50.674Z,25.63
2023-05-21T04:33:36.915Z,25.60
2023-05-21T04:36:24.274Z,24.60
2023-05-21T04:39:10.935Z,24.70
2023-05-21T04:41:57.385Z,24.65
2023-05-21T04:44:44.959Z,25.20
2023-05-21T04:47:35.275Z,25.52
2023-05-21T04:50:23.241Z,25.58
2023-05-21T04:53:09.728Z,23.77
2023-05-21T04:55:59.321Z,24.42
2023-05-21T04:58:45.973Z,24.20
2023-05-21T05:01:35.379Z,26.20
2023-05-21T05:04:21.929Z,23.58
2023-05-21T05:07:08.690Z,24.08
2023-05-21T05:09:55.008Z,23.10
2023-05-21T05:12:41.624Z,23.40
2023-05-21T05:15:27.859Z,24.85
2023-05-21T05:18:16.353Z,23.52
2023-05-21T05:21:03.279Z,23.67
2023-05-21T05:23:50.142Z,22.48
2023-05-21T05:26:36.328Z,23.02
2023-05-21T05:29:23.039Z,23.38
2023-05-21T05:32:09.760Z,21.98
2023-05-21T05:34:57.676Z,21.38
2023-05-21T05:37:44.007Z,22.20
2023-05-21T05:40:30.647Z,20.58
2023-05-21T05:43:16.970Z,22.00
2023-05-21T05:46:03.817Z,20.73
2023-05-21T05:48:50.832Z,20.30
2023-05-21T05:51:38.736Z,19.88
2023-05-21T05:54:25.014Z,20.27
2023-05-21T05:57:11.521Z,19.45
2023-05-21T05:59:58.110Z,19.88
2023-05-21T06:02:44.950Z,18.83
2023-05-21T06:05:31.551Z,20.02
2023-05-21T06:08:19.579Z,19.42
2023-05-21T06:11:05.866Z,20.42
2023-05-21T06:13:52.378Z,19.52
2023-05-21T06:16:39.019Z,20.17
2023-05-21T06:19:26.059Z,20.60
2023-05-21T06:22:12.670Z,21.20
2023-05-21T06:25:00.696Z,19.17
2023-05-21T06:27:47.490Z,20.85
2023-05-21T06:30:33.979Z,19.05
2023-05-21T06:33:20.564Z,20.27
2023-05-21T06:36:07.690Z,20.92
2023-05-21T06:38:54.494Z,19.65
2023-05-21T06:41:42.114Z,20.10
2023-05-21T06:44:28.905Z,20.40
2023-05-21T06:47:15.564Z,19.90
2023-05-21T06:50:01.792Z,19.92
2023-05-21T06:52:48.228Z,18.60
2023-05-21T06:55:34.741Z,19.65
2023-05-21T06:58:22.863Z,19.27
2023-05-21T07:01:09.676Z,18.45
2023-05-21T07:03:56.070Z,18.95
2023-05-21T07:06:42.305Z,19.45
2023-05-21T07:09:28.803Z,18.33
2023-05-21T07:12:15.453Z,19.45
2023-05-21T07:15:03.060Z,20.40
2023-05-21T07:17:49.339Z,19.92
2023-05-21T07:20:36.039Z,19.75
2023-05-21T07:23:22.646Z,20.55
2023-05-21T07:26:10.838Z,20.15
2023-05-21T07:28:57.466Z,20.35
2023-05-21T07:31:45.458Z,20.67
2023-05-21T07:34:32.891Z,18.73
2023-05-21T07:37:19.243Z,19.85
2023-05-21T07:40:07.759Z,19.48
2023-05-21T07:42:54.240Z,20.08
2023-05-21T07:45:40.850Z,20.27
2023-05-21T07:48:28.831Z,19.85
2023-05-21T07:51:15.460Z,19.05
2023-05-21T07:54:01.989Z,19.88
2023-05-21T07:56:48.750Z,19.27
2023-05-21T07:59:35.246Z,21.85
2023-05-21T08:02:21.823Z,20.20
2023-05-21T08:05:11.330Z,20.45
2023-05-21T08:07:58.124Z,19.20
2023-05-21T08:10:44.814Z,19.25
2023-05-21T08:13:31.535Z,20.05
2023-05-21T08:16:18.332Z,19.00
2023-05-21T08:19:04.724Z,19.17
2023-05-21T08:21:53.219Z,19.40
2023-05-21T08:24:39.904Z,17.27
2023-05-21T08:27:26.396Z,17.17
2023-05-21T08:30:13.233Z,17.38
2023-05-21T08:32:59.905Z,17.77
2023-05-21T08:35:46.652Z,17.42
2023-05-21T08:38:35.112Z,18.77
2023-05-21T08:41:24.001Z,16.52
2023-05-21T08:44:13.262Z,18.40
2023-05-21T08:47:03.680Z,17.00
2023-05-21T08:49:51.868Z,17.42
2023-05-21T08:52:38.392Z,19.25
2023-05-21T08:55:26.858Z,16.73
2023-05-21T08:58:14.591Z,16.92
2023-05-21T09:01:01.371Z,15.45
2023-05-21T09:03:49.361Z,15.95
2023-05-21T09:06:36.236Z,16.08
2023-05-21T09:09:28.957Z,15.20
2023-05-21T09:12:17.432Z,17.15
2023-05-21T09:15:05.352Z,16.08
2023-05-21T09:17:51.750Z,14.57
2023-05-21T09:20:38.163Z,16.35
2023-05-21T09:23:24.486Z,16.13
2023-05-21T09:26:13.972Z,16.15
2023-05-21T09:29:02.109Z,14.52
2023-05-21T09:31:48.713Z,14.93
2023-05-21T09:34:37.289Z,15.10
2023-05-21T09:37:27.521Z,14.68
2023-05-21T09:40:15.625Z,15.52
2023-05-21T09:43:02.729Z,15.93
2023-05-21T09:46:01.266Z,14.88
2023-05-21T09:48:48.546Z,13.95
2023-05-21T09:51:39.344Z,14.48
2023-05-21T09:54:26.957Z,13.88
2023-05-21T09:57:15.665Z,14.18
2023-05-21T10:00:02.126Z,14.85
2023-05-21T10:02:51.099Z,13.07
2023-05-21T10:05:38.470Z,14.85
2023-05-21T10:08:27.954Z,25.85
2023-05-21T10:11:15.309Z,13.85
2023-05-21T10:14:07.228Z,13.90
2023-05-21T10:16:55.724Z,13.50
2023-05-21T10:19:44.821Z,14.90
2023-05-21T10:22:31.764Z,13.85
2023-05-21T10:25:19.104Z,13.18
2023-05-21T10:28:07.743Z,13.13
2023-05-21T10:30:54.660Z,14.02
2023-05-21T10:33:42.834Z,14.15
2023-05-21T10:36:35.277Z,14.00
2023-05-21T10:39:24.011Z,13.38
2023-05-21T10:42:21.100Z,13.57
2023-05-21T10:45:16.901Z,12.95
2023-05-21T10:48:19.267Z,11.88
2023-05-21T10:51:21.061Z,12.20
2023-05-21T10:54:39.502Z,12.40
2023-05-21T10:57:54.301Z,11.68
2023-05-21T11:00:41.670Z,12.10
2023-05-21T11:03:29.600Z,12.95
2023-05-21T11:06:24.745Z,11.77
2023-05-21T11:09:13.661Z,12.15
2023-05-21T11:12:03.123Z,13.45
2023-05-21T11:14:57.990Z,10.80
2023-05-21T11:17:44.587Z,10.50
2023-05-21T11:20:35.524Z,11.45
2023-05-21T11:23:22.439Z,11.75
2023-05-21T11:26:09.043Z,12.20
2023-05-21T11:29:09.447Z,10.82
2023-05-21T11:32:02.718Z,9.70
2023-05-21T11:34:49.596Z,10.90
2023-05-21T11:37:40.478Z,10.50
2023-05-21T11:40:30.795Z,9.70
2023-05-21T11:43:17.121Z,9.85
2023-05-21T11:46:06.363Z,8.70
2023-05-21T11:48:54.157Z,8.45
2023-05-21T11:51:41.591Z,8.75
2023-05-21T11:54:28.158Z,8.85
2023-05-21T11:57:16.621Z,8.07
2023-05-21T12:00:14.562Z,8.25
2023-05-21T12:03:02.589Z,8.52
2023-05-21T12:05:49.899Z,8.20
2023-05-21T12:08:38.334Z,8.30
2023-05-21T12:11:24.626Z,7.30
2023-05-21T12:14:11.965Z,7.43
2023-05-21T12:16:58.986Z,7.68
2023-05-21T12:19:47.844Z,7.60
2023-05-21T12:22:34.303Z,8.27
2023-05-21T12:25:21.450Z,7.88
2023-05-21T12:28:08.510Z,8.13
2023-05-21T12:30:54.607Z,8.05
2023-05-21T12:33:41.332Z,8.00
2023-05-21T12:36:31.787Z,8.25
2023-05-21T12:39:18.257Z,8.35
2023-05-21T12:42:04.619Z,8.70
2023-05-21T12:44:53.142Z,9.05
2023-05-21T12:47:40.145Z,7.60
2023-05-21T12:50:28.011Z,8.30
2023-05-21T12:53:15.665Z,8.25
2023-05-21T12:56:09.425Z,8.80
2023-05-21T12:58:56.000Z,8.43
2023-05-21T13:01:42.952Z,8.98
2023-05-21T13:04:29.305Z,8.55
2023-05-21T13:07:17.307Z,9.32
2023-05-21T13:10:06.408Z,9.35
2023-05-21T13:12:52.815Z,8.70
2023-05-21T13:15:39.806Z,9.07
2023-05-21T13:18:26.566Z,8.77
2023-05-21T13:21:14.191Z,8.93
2023-05-21T13:24:00.325Z,9.27
2023-05-21T13:26:48.489Z,8.93
2023-05-21T13:29:35.795Z,9.73
2023-05-21T13:32:23.349Z,8.68
2023-05-21T13:35:11.877Z,8.95
2023-05-21T13:37:58.772Z,9.23
2023-05-21T13:40:44.977Z,9.15
2023-05-21T13:43:33.553Z,9.13
2023-05-21T13:46:20.261Z,8.80
2023-05-21T13:49:08.014Z,8.60
2023-05-21T13:51:54.296Z,9.40
2023-05-21T13:54:41.171Z,9.43
2023-05-21T13:57:30.546Z,9.35
2023-05-21T14:00:18.590Z,9.27
2023-05-21T14:03:06.484Z,9.05
2023-05-21T14:05:53.748Z,9.18
2023-05-21T14:08:40.065Z,8.68
2023-05-21T14:11:26.903Z,9.20
2023-05-21T14:14:18.657Z,9.18
2023-05-21T14:17:07.432Z,9.32
2023-05-21T14:19:54.804Z,9.90
2023-05-21T14:22:41.160Z,9.52
2023-05-21T14:25:27.808Z,9.82
2023-05-21T14:28:14.140Z,9.52
2023-05-21T14:31:00.554Z,9.82
2023-05-21T14:33:48.296Z,10.43
2023-05-21T14:36:34.664Z,9.90
2023-05-21T14:39:20.973Z,10.98
2023-05-21T14:42:07.416Z,10.48
2023-05-21T14:44:54.115Z,10.85
2023-05-21T14:47:40.585Z,10.65
2023-05-21T14:50:28.573Z,10.00
2023-05-21T14:53:15.005Z,10.15
2023-05-21T14:56:03.819Z,10.18
2023-05-21T14:58:49.904Z,10.90
2023-05-21T15:01:36.775Z,10.63
2023-05-21T15:04:23.434Z,9.32
2023-05-21T15:07:11.217Z,9.48
2023-05-21T15:09:57.923Z,9.60
2023-05-21T15:12:44.610Z,9.07
2023-05-21T15:15:30.874Z,9.65
2023-05-21T15:18:17.492Z,8.60
2023-05-21T15:21:03.763Z,9.23
2023-05-21T15:23:51.576Z,9.32
2023-05-21T15:26:37.885Z,10.32
2023-05-21T15:29:24.560Z,10.27
2023-05-21T15:32:10.839Z,10.15
2023-05-21T15:34:57.536Z,10.77
2023-05-21T15:37:45.378Z,10.98
2023-05-21T15:40:34.014Z,11.68
2023-05-21T15:43:20.532Z,11.50
2023-05-21T15:46:07.217Z,11.50
2023-05-21T15:48:53.478Z,11.55
2023-05-21T15:51:40.325Z,12.13
2023-05-21T15:54:26.922Z,11.07
2023-05-21T15:57:14.830Z,11.43
2023-05-21T16:00:01.383Z,12.10
2023-05-21T16:02:48.124Z,11.10
2023-05-21T16:05:35.028Z,10.95
2023-05-21T16:08:21.695Z,10.77
2023-05-21T16:11:07.949Z,10.30
2023-05-21T16:13:56.005Z,10.35
2023-05-21T16:16:42.458Z,10.95
2023-05-21T16:19:28.762Z,10.57
2023-05-21T16:22:15.741Z,9.75
2023-05-21T16:25:02.643Z,10.10
2023-05-21T16:27:49.743Z,8.70
2023-05-21T16:30:37.491Z,9.20
2023-05-21T16:33:23.881Z,9.68
2023-05-21T16:36:10.414Z,9.38
2023-05-21T16:38:56.815Z,9.82
2023-05-21T16:41:44.754Z,8.98
2023-05-21T16:44:31.879Z,9.43
2023-05-21T16:47:20.333Z,9.43
2023-05-21T16:50:08.467Z,9.73
2023-05-21T16:52:54.972Z,10.15
2023-05-21T16:55:42.661Z,8.80
2023-05-21T16:58:29.220Z,8.95
2023-05-21T17:01:15.764Z,9.02
2023-05-21T17:04:06.799Z,8.90
2023-05-21T17:06:53.226Z,9.50
2023-05-21T17:09:39.822Z,9.30
2023-05-21T17:12:26.249Z,8.88
2023-05-21T17:15:12.638Z,9.80
2023-05-21T17:17:59.322Z,8.88
2023-05-21T17:20:47.210Z,9.07
2023-05-21T17:23:33.354Z,9.30
2023-05-21T17:26:19.530Z,9.40
2023-05-21T17:29:05.760Z,8.77
2023-05-21T17:31:52.319Z,9.13
2023-05-21T17:34:39.184Z,8.95
2023-05-21T17:37:26.803Z,9.10
2023-05-21T17:40:13.883Z,9.32
2023-05-21T17:43:00.022Z,9.50
2023-05-21T17:45:46.450Z,8.95
2023-05-21T17:48:32.801Z,9.77
2023-05-21T17:51:19.471Z,9.43
2023-05-21T17:54:07.983Z,9.48
2023-05-21T17:56:54.350Z,10.27
2023-05-21T17:59:44.950Z,10.05
2023-05-21T18:02:31.554Z,9.63
2023-05-21T18:05:17.983Z,10.05
2023-05-21T18:08:04.677Z,10.52
2023-05-21T18:10:52.346Z,9.20
2023-05-21T18:13:38.976Z,11.02
2023-05-21T18:16:25.373Z,9.63
2023-05-21T18:19:12.125Z,9.82
2023-05-21T18:21:58.830Z,9.68
2023-05-21T18:24:46.151Z,9.38
2023-05-21T18:27:34.271Z,9.38
2023-05-21T18:30:20.699Z,9.20
2023-05-21T18:33:08.402Z,9.65
2023-05-21T18:35:55.562Z,9.35
2023-05-21T18:38:42.076Z,9.50
2023-05-21T18:41:28.456Z,8.68
2023-05-21T18:44:16.305Z,7.97
2023-05-21T18:47:02.864Z,8.77
2023-05-21T18:49:49.488Z,9.38
2023-05-21T18:52:35.691Z,8.50
2023-05-21T18:55:22.661Z,8.77
2023-05-21T18:58:08.784Z,8.43
2023-05-21T19:00:56.560Z,8.63
2023-05-21T19:03:43.237Z,8.30
2023-05-21T19:06:29.618Z,8.82
2023-05-21T19:09:16.171Z,9.45
2023-05-21T19:12:02.737Z,9.15
2023-05-21T19:14:49.393Z,9.55
2023-05-21T19:17:39.026Z,9.95
2023-05-21T19:20:26.570Z,8.90
2023-05-21T19:23:12.776Z,8.82
2023-05-21T19:25:59.326Z,8.88
2023-05-21T19:28:45.655Z,9.07
2023-05-21T19:31:32.122Z,9.52
2023-05-21T19:34:19.661Z,9.50
2023-05-21T19:37:06.812Z,9.65
2023-05-21T19:39:53.277Z,10.00
2023-05-21T19:42:39.488Z,8.52
2023-05-21T19:45:25.813Z,10.15
2023-05-21T19:48:12.656Z,9.63
2023-05-21T19:51:00.462Z,9.95
2023-05-21T19:53:46.772Z,10.20
2023-05-21T19:56:33.481Z,10.45
2023-05-21T19:59:19.918Z,9.75
2023-05-21T20:02:06.611Z,9.73
2023-05-21T20:04:53.454Z,9.68
2023-05-21T20:07:41.331Z,9.95
2023-05-21T20:10:28.135Z,10.05
2023-05-21T20:13:14.508Z,10.48
2023-05-21T20:16:00.726Z,10.32
2023-05-21T20:18:47.777Z,10.10
2023-05-21T20:21:34.336Z,10.18
2023-05-21T20:24:21.858Z,10.13
2023-05-21T20:27:08.169Z,10.43
2023-05-21T20:29:54.795Z,10.50
2023-05-21T20:32:41.219Z,10.80
2023-05-21T20:35:27.966Z,10.35
2023-05-21T20:38:16.004Z,11.02
2023-05-21T20:41:05.400Z,9.98
2023-05-21T20:43:52.184Z,10.07
2023-05-21T20:46:39.221Z,10.38
2023-05-21T20:49:28.126Z,10.68
2023-05-21T20:52:14.339Z,10.93
2023-05-21T20:55:00.976Z,10.48
2023-05-21T20:57:48.996Z,10.65
2023-05-21T21:00:35.373Z,10.15
2023-05-21T21:03:22.815Z,10.85
2023-05-21T21:06:10.674Z,10.43
2023-05-21T21:08:57.034Z,10.50
2023-05-21T21:11:43.107Z,10.05
2023-05-21T21:14:32.078Z,10.02
2023-05-21T21:17:18.517Z,10.45
2023-05-21T21:20:07.505Z,10.38
2023-05-21T21:22:53.613Z,9.80
2023-05-21T21:25:40.210Z,10.32
2023-05-21T21:28:26.699Z,9.93
2023-05-21T21:31:14.389Z,10.13
2023-05-21T21:34:00.937Z,9.55
2023-05-21T21:36:47.881Z,9.68
2023-05-21T21:39:34.222Z,9.25
2023-05-21T21:42:20.862Z,9.80
2023-05-21T21:45:08.711Z,9.05
2023-05-21T21:47:56.761Z,10.60
2023-05-21T21:50:43.239Z,8.80
2023-05-21T21:53:29.827Z,8.88
2023-05-21T21:56:16.331Z,9.20
2023-05-21T21:59:03.185Z,9.98
2023-05-21T22:01:49.637Z,8.98
2023-05-21T22:04:37.418Z,9.48
2023-05-21T22:07:24.002Z,8.13
2023-05-21T22:10:11.324Z,8.90
2023-05-21T22:12:57.974Z,9.30
2023-05-21T22:15:44.140Z,9.48
2023-05-21T22:18:39.503Z,9.02
2023-05-21T22:21:29.357Z,9.55
2023-05-21T22:24:30.849Z,9.18
2023-05-21T22:27:18.558Z,9.45
2023-05-21T22:30:05.987Z,9.18
2023-05-21T22:32:52.459Z,8.75
2023-05-21T22:35:39.551Z,9.15
2023-05-21T22:38:27.656Z,8.68
2023-05-21T22:41:14.596Z,9.18
2023-05-21T22:44:00.995Z,9.30
2023-05-21T22:46:47.723Z,9.23
2023-05-21T22:49:34.278Z,9.00
2023-05-21T22:52:21.620Z,10.07
2023-05-21T22:55:11.477Z,9.57
2023-05-21T22:57:57.732Z,9.50
2023-05-21T23:00:44.349Z,9.15
2023-05-21T23:03:31.018Z,9.57
2023-05-21T23:06:17.545Z,9.13
2023-05-21T23:09:03.898Z,9.55
2023-05-21T23:11:51.725Z,8.93
2023-05-21T23:14:38.125Z,9.00
2023-05-21T23:17:24.748Z,9.00
2023-05-21T23:20:12.374Z,9.13
2023-05-21T23:22:58.977Z,9.82
2023-05-21T23:25:46.202Z,10.85
2023-05-21T23:28:36.459Z,9.98
2023-05-21T23:31:24.771Z,10.20
2023-05-21T23:34:11.120Z,10.23
2023-05-21T23:37:00.213Z,10.30
2023-05-21T23:39:49.572Z,10.00
2023-05-21T23:42:36.359Z,10.45
2023-05-21T23:45:24.309Z,10.05
2023-05-21T23:48:11.808Z,9.98
2023-05-21T23:50:58.375Z,10.32
2023-05-21T23:53:45.385Z,10.18
2023-05-21T23:56:31.896Z,9.70
2023-05-21T23:59:18.797Z,10.30
